CheckWX is a tool to help pilots better visualize weather data.  It is not intended as a substitute for an official pre-flight weather briefing.

07:53:36 UTC

HELX TAF
Luxor International Airport
Luxor, Egypt
TAF HELX 240500Z 2406/2512 34008G18KT 6000 NSC

May-24@
06:00 UTC

May-24 @ 06:00 UTC

May-25@
12:00 UTC

May-25 @ 12:00 UTC

TAF HELX 240500Z 2406/2512 34008G18KT 6000 NSC
Wind
  • 340° at 8 KTS
  • {Gusting to 18 KTS
Cloud Levels
  • No significant clouds